sensor_id;sensor_type;location;lat;lon;timestamp;P1;durP1;ratioP1;P2;durP2;ratioP2
18789;SDS011;9523;42.650;23.386;2023-05-13T00:02:05;5.07;;;3.37;;
18789;SDS011;9523;42.650;23.386;2023-05-13T00:04:32;5.70;;;2.80;;
18789;SDS011;9523;42.650;23.386;2023-05-13T00:07:00;4.60;;;2.90;;
18789;SDS011;9523;42.650;23.386;2023-05-13T00:09:27;5.60;;;3.03;;
18789;SDS011;9523;42.650;23.386;2023-05-13T00:11:54;4.27;;;2.20;;
18789;SDS011;9523;42.650;23.386;2023-05-13T00:14:21;2.60;;;2.10;;
18789;SDS011;9523;42.650;23.386;2023-05-13T00:16:48;3.47;;;2.57;;
18789;SDS011;9523;42.650;23.386;2023-05-13T00:19:15;4.67;;;2.53;;
18789;SDS011;9523;42.650;23.386;2023-05-13T00:21:42;2.87;;;2.23;;
18789;SDS011;9523;42.650;23.386;2023-05-13T00:24:10;3.17;;;2.00;;
18789;SDS011;9523;42.650;23.386;2023-05-13T00:26:37;2.40;;;2.20;;
18789;SDS011;9523;42.650;23.386;2023-05-13T00:29:04;2.47;;;1.90;;
18789;SDS011;9523;42.650;23.386;2023-05-13T00:31:30;3.67;;;2.37;;
18789;SDS011;9523;42.650;23.386;2023-05-13T00:33:57;4.47;;;2.07;;
18789;SDS011;9523;42.650;23.386;2023-05-13T00:36:24;3.50;;;2.60;;
18789;SDS011;9523;42.650;23.386;2023-05-13T00:38:51;2.23;;;2.03;;
18789;SDS011;9523;42.650;23.386;2023-05-13T00:41:23;4.20;;;2.20;;
18789;SDS011;9523;42.650;23.386;2023-05-13T00:43:52;4.80;;;2.23;;
18789;SDS011;9523;42.650;23.386;2023-05-13T00:46:20;5.60;;;2.30;;
18789;SDS011;9523;42.650;23.386;2023-05-13T00:48:46;3.17;;;2.50;;
18789;SDS011;9523;42.650;23.386;2023-05-13T00:51:13;5.10;;;2.50;;
18789;SDS011;9523;42.650;23.386;2023-05-13T00:53:40;2.50;;;2.20;;
18789;SDS011;9523;42.650;23.386;2023-05-13T00:56:08;2.50;;;2.10;;
18789;SDS011;9523;42.650;23.386;2023-05-13T00:58:36;2.87;;;2.40;;
18789;SDS011;9523;42.650;23.386;2023-05-13T01:01:05;5.70;;;2.00;;
18789;SDS011;9523;42.650;23.386;2023-05-13T01:03:41;6.17;;;2.40;;
18789;SDS011;9523;42.650;23.386;2023-05-13T01:06:14;2.40;;;1.80;;
18789;SDS011;9523;42.650;23.386;2023-05-13T01:08:46;2.73;;;2.10;;
18789;SDS011;9523;42.650;23.386;2023-05-13T01:11:24;2.57;;;2.03;;
18789;SDS011;9523;42.650;23.386;2023-05-13T01:13:56;3.00;;;1.90;;
18789;SDS011;9523;42.650;23.386;2023-05-13T01:16:29;2.50;;;2.13;;
18789;SDS011;9523;42.650;23.386;2023-05-13T01:19:03;4.27;;;2.10;;
18789;SDS011;9523;42.650;23.386;2023-05-13T01:21:38;2.40;;;1.83;;
18789;SDS011;9523;42.650;23.386;2023-05-13T01:24:05;2.17;;;1.83;;
18789;SDS011;9523;42.650;23.386;2023-05-13T01:26:33;3.43;;;2.10;;
18789;SDS011;9523;42.650;23.386;2023-05-13T01:29:00;3.80;;;2.00;;
18789;SDS011;9523;42.650;23.386;2023-05-13T01:31:27;1.77;;;1.57;;
18789;SDS011;9523;42.650;23.386;2023-05-13T01:33:55;2.10;;;1.80;;
18789;SDS011;9523;42.650;23.386;2023-05-13T01:36:23;2.43;;;1.93;;
18789;SDS011;9523;42.650;23.386;2023-05-13T01:38:51;2.90;;;1.77;;
18789;SDS011;9523;42.650;23.386;2023-05-13T01:41:20;2.37;;;1.57;;
18789;SDS011;9523;42.650;23.386;2023-05-13T01:43:47;2.03;;;1.50;;
18789;SDS011;9523;42.650;23.386;2023-05-13T01:46:14;5.30;;;1.83;;
18789;SDS011;9523;42.650;23.386;2023-05-13T01:48:41;2.13;;;1.90;;
18789;SDS011;9523;42.650;23.386;2023-05-13T01:51:08;2.30;;;1.93;;
18789;SDS011;9523;42.650;23.386;2023-05-13T01:53:34;2.97;;;1.70;;
18789;SDS011;9523;42.650;23.386;2023-05-13T01:56:03;2.47;;;1.90;;
18789;SDS011;9523;42.650;23.386;2023-05-13T01:58:30;2.73;;;1.90;;
18789;SDS011;9523;42.650;23.386;2023-05-13T02:00:57;2.73;;;1.83;;
18789;SDS011;9523;42.650;23.386;2023-05-13T02:03:23;3.80;;;2.00;;
18789;SDS011;9523;42.650;23.386;2023-05-13T02:05:50;3.43;;;2.00;;
18789;SDS011;9523;42.650;23.386;2023-05-13T02:08:17;3.07;;;2.10;;
18789;SDS011;9523;42.650;23.386;2023-05-13T02:10:53;3.43;;;2.13;;
18789;SDS011;9523;42.650;23.386;2023-05-13T02:13:21;2.93;;;1.80;;
18789;SDS011;9523;42.650;23.386;2023-05-13T02:15:48;2.60;;;2.13;;
18789;SDS011;9523;42.650;23.386;2023-05-13T02:18:15;3.10;;;2.27;;
18789;SDS011;9523;42.650;23.386;2023-05-13T02:20:42;4.30;;;1.90;;
18789;SDS011;9523;42.650;23.386;2023-05-13T02:23:09;4.00;;;2.00;;
18789;SDS011;9523;42.650;23.386;2023-05-13T02:25:36;3.30;;;2.00;;
18789;SDS011;9523;42.650;23.386;2023-05-13T02:28:03;2.60;;;2.00;;
18789;SDS011;9523;42.650;23.386;2023-05-13T02:30:31;1.93;;;1.73;;
18789;SDS011;9523;42.650;23.386;2023-05-13T02:32:59;4.60;;;2.03;;
18789;SDS011;9523;42.650;23.386;2023-05-13T02:35:26;2.23;;;1.77;;
18789;SDS011;9523;42.650;23.386;2023-05-13T02:37:54;2.93;;;2.00;;
18789;SDS011;9523;42.650;23.386;2023-05-13T02:40:21;3.50;;;2.20;;
18789;SDS011;9523;42.650;23.386;2023-05-13T02:42:47;4.27;;;2.40;;
18789;SDS011;9523;42.650;23.386;2023-05-13T02:45:16;4.07;;;2.10;;
18789;SDS011;9523;42.650;23.386;2023-05-13T02:47:45;3.67;;;2.10;;
18789;SDS011;9523;42.650;23.386;2023-05-13T02:50:12;4.00;;;2.40;;
18789;SDS011;9523;42.650;23.386;2023-05-13T02:52:39;2.43;;;2.17;;
18789;SDS011;9523;42.650;23.386;2023-05-13T02:55:06;2.73;;;1.93;;
18789;SDS011;9523;42.650;23.386;2023-05-13T02:57:34;2.93;;;2.10;;
18789;SDS011;9523;42.650;23.386;2023-05-13T03:00:02;2.80;;;2.00;;
18789;SDS011;9523;42.650;23.386;2023-05-13T03:02:29;6.50;;;2.30;;
18789;SDS011;9523;42.650;23.386;2023-05-13T03:04:57;3.57;;;2.30;;
18789;SDS011;9523;42.650;23.386;2023-05-13T03:07:24;3.40;;;2.27;;
18789;SDS011;9523;42.650;23.386;2023-05-13T03:09:51;3.57;;;2.20;;
18789;SDS011;9523;42.650;23.386;2023-05-13T03:12:18;4.23;;;2.10;;
18789;SDS011;9523;42.650;23.386;2023-05-13T03:14:45;4.97;;;2.67;;
18789;SDS011;9523;42.650;23.386;2023-05-13T03:17:11;3.13;;;2.53;;
18789;SDS011;9523;42.650;23.386;2023-05-13T03:19:38;3.40;;;2.50;;
18789;SDS011;9523;42.650;23.386;2023-05-13T03:22:06;6.93;;;2.80;;
18789;SDS011;9523;42.650;23.386;2023-05-13T03:24:33;5.07;;;2.47;;
18789;SDS011;9523;42.650;23.386;2023-05-13T03:27:00;4.43;;;2.70;;
18789;SDS011;9523;42.650;23.386;2023-05-13T03:29:27;3.93;;;2.63;;
18789;SDS011;9523;42.650;23.386;2023-05-13T03:31:54;4.70;;;2.63;;
18789;SDS011;9523;42.650;23.386;2023-05-13T03:34:20;4.23;;;2.60;;
18789;SDS011;9523;42.650;23.386;2023-05-13T03:36:47;3.37;;;2.40;;
18789;SDS011;9523;42.650;23.386;2023-05-13T03:39:15;3.67;;;2.83;;
18789;SDS011;9523;42.650;23.386;2023-05-13T03:41:43;3.70;;;2.70;;
18789;SDS011;9523;42.650;23.386;2023-05-13T03:44:10;3.50;;;2.43;;
18789;SDS011;9523;42.650;23.386;2023-05-13T03:46:37;4.47;;;2.60;;
18789;SDS011;9523;42.650;23.386;2023-05-13T03:49:04;4.37;;;2.60;;
18789;SDS011;9523;42.650;23.386;2023-05-13T03:51:31;4.07;;;2.47;;
18789;SDS011;9523;42.650;23.386;2023-05-13T03:53:58;4.60;;;2.50;;
18789;SDS011;9523;42.650;23.386;2023-05-13T03:56:26;4.47;;;2.60;;
18789;SDS011;9523;42.650;23.386;2023-05-13T03:58:53;4.07;;;2.70;;
18789;SDS011;9523;42.650;23.386;2023-05-13T04:01:20;4.17;;;2.40;;
18789;SDS011;9523;42.650;23.386;2023-05-13T04:03:47;3.80;;;2.50;;
18789;SDS011;9523;42.650;23.386;2023-05-13T04:06:14;3.33;;;2.60;;
18789;SDS011;9523;42.650;23.386;2023-05-13T04:08:41;3.50;;;2.40;;
18789;SDS011;9523;42.650;23.386;2023-05-13T04:11:08;5.47;;;2.90;;
18789;SDS011;9523;42.650;23.386;2023-05-13T04:13:36;4.00;;;2.33;;
18789;SDS011;9523;42.650;23.386;2023-05-13T04:16:03;5.27;;;2.93;;
18789;SDS011;9523;42.650;23.386;2023-05-13T04:18:33;3.30;;;2.83;;
18789;SDS011;9523;42.650;23.386;2023-05-13T04:21:04;4.63;;;3.07;;
18789;SDS011;9523;42.650;23.386;2023-05-13T04:23:34;10.70;;;3.67;;
18789;SDS011;9523;42.650;23.386;2023-05-13T04:26:01;5.10;;;2.97;;
18789;SDS011;9523;42.650;23.386;2023-05-13T04:28:28;3.97;;;2.80;;
18789;SDS011;9523;42.650;23.386;2023-05-13T04:30:56;4.60;;;3.20;;
18789;SDS011;9523;42.650;23.386;2023-05-13T04:33:25;5.27;;;2.67;;
18789;SDS011;9523;42.650;23.386;2023-05-13T04:35:52;5.63;;;2.83;;
18789;SDS011;9523;42.650;23.386;2023-05-13T04:38:19;6.63;;;3.13;;
18789;SDS011;9523;42.650;23.386;2023-05-13T04:40:46;8.17;;;3.03;;
18789;SDS011;9523;42.650;23.386;2023-05-13T04:43:13;5.50;;;3.10;;
18789;SDS011;9523;42.650;23.386;2023-05-13T04:45:40;7.73;;;3.20;;
18789;SDS011;9523;42.650;23.386;2023-05-13T04:48:08;4.93;;;3.00;;
18789;SDS011;9523;42.650;23.386;2023-05-13T04:50:35;3.80;;;2.90;;
18789;SDS011;9523;42.650;23.386;2023-05-13T04:53:05;4.40;;;3.00;;
18789;SDS011;9523;42.650;23.386;2023-05-13T04:55:31;6.07;;;2.93;;
18789;SDS011;9523;42.650;23.386;2023-05-13T04:57:59;9.93;;;3.03;;
18789;SDS011;9523;42.650;23.386;2023-05-13T05:00:29;4.00;;;3.30;;
18789;SDS011;9523;42.650;23.386;2023-05-13T05:02:55;4.17;;;2.63;;
18789;SDS011;9523;42.650;23.386;2023-05-13T05:05:24;6.43;;;3.10;;
18789;SDS011;9523;42.650;23.386;2023-05-13T05:07:50;4.83;;;3.37;;
18789;SDS011;9523;42.650;23.386;2023-05-13T05:10:17;5.80;;;3.80;;
18789;SDS011;9523;42.650;23.386;2023-05-13T05:12:44;7.33;;;3.60;;
18789;SDS011;9523;42.650;23.386;2023-05-13T05:15:11;5.70;;;3.43;;
18789;SDS011;9523;42.650;23.386;2023-05-13T05:17:40;5.77;;;3.47;;
18789;SDS011;9523;42.650;23.386;2023-05-13T05:20:07;6.80;;;4.00;;
18789;SDS011;9523;42.650;23.386;2023-05-13T05:22:37;6.50;;;4.13;;
18789;SDS011;9523;42.650;23.386;2023-05-13T05:25:06;6.07;;;4.23;;
18789;SDS011;9523;42.650;23.386;2023-05-13T05:27:34;7.87;;;4.60;;
18789;SDS011;9523;42.650;23.386;2023-05-13T05:30:00;4.97;;;4.00;;
18789;SDS011;9523;42.650;23.386;2023-05-13T05:32:27;5.80;;;4.47;;
18789;SDS011;9523;42.650;23.386;2023-05-13T05:34:54;6.07;;;4.50;;
18789;SDS011;9523;42.650;23.386;2023-05-13T05:37:21;8.17;;;4.00;;
18789;SDS011;9523;42.650;23.386;2023-05-13T05:39:49;9.43;;;4.93;;
18789;SDS011;9523;42.650;23.386;2023-05-13T05:42:16;8.03;;;5.50;;
18789;SDS011;9523;42.650;23.386;2023-05-13T05:44:43;8.03;;;5.67;;
18789;SDS011;9523;42.650;23.386;2023-05-13T05:47:10;10.13;;;4.70;;
18789;SDS011;9523;42.650;23.386;2023-05-13T05:49:37;7.93;;;4.83;;
18789;SDS011;9523;42.650;23.386;2023-05-13T05:52:10;7.63;;;4.87;;
18789;SDS011;9523;42.650;23.386;2023-05-13T05:54:40;10.67;;;5.47;;
18789;SDS011;9523;42.650;23.386;2023-05-13T05:57:08;9.47;;;5.10;;
18789;SDS011;9523;42.650;23.386;2023-05-13T05:59:35;9.70;;;5.00;;
18789;SDS011;9523;42.650;23.386;2023-05-13T06:02:02;6.20;;;5.00;;
18789;SDS011;9523;42.650;23.386;2023-05-13T06:04:30;7.93;;;4.70;;
18789;SDS011;9523;42.650;23.386;2023-05-13T06:06:57;5.97;;;4.70;;
18789;SDS011;9523;42.650;23.386;2023-05-13T06:09:38;7.17;;;4.90;;
18789;SDS011;9523;42.650;23.386;2023-05-13T06:12:09;11.00;;;7.60;;
18789;SDS011;9523;42.650;23.386;2023-05-13T06:14:36;10.20;;;4.67;;
18789;SDS011;9523;42.650;23.386;2023-05-13T06:17:03;8.40;;;5.43;;
18789;SDS011;9523;42.650;23.386;2023-05-13T06:19:30;7.73;;;5.27;;
18789;SDS011;9523;42.650;23.386;2023-05-13T06:21:56;6.10;;;5.00;;
18789;SDS011;9523;42.650;23.386;2023-05-13T06:24:23;7.17;;;4.50;;
18789;SDS011;9523;42.650;23.386;2023-05-13T06:26:50;8.90;;;6.20;;
18789;SDS011;9523;42.650;23.386;2023-05-13T06:29:18;10.10;;;5.60;;
18789;SDS011;9523;42.650;23.386;2023-05-13T06:31:45;7.17;;;5.53;;
18789;SDS011;9523;42.650;23.386;2023-05-13T06:34:12;9.07;;;4.37;;
18789;SDS011;9523;42.650;23.386;2023-05-13T06:36:41;6.57;;;4.37;;
18789;SDS011;9523;42.650;23.386;2023-05-13T06:39:08;7.20;;;4.30;;
18789;SDS011;9523;42.650;23.386;2023-05-13T06:41:35;7.47;;;4.90;;
18789;SDS011;9523;42.650;23.386;2023-05-13T06:44:02;7.37;;;4.50;;
18789;SDS011;9523;42.650;23.386;2023-05-13T06:46:34;11.77;;;4.60;;
18789;SDS011;9523;42.650;23.386;2023-05-13T06:49:00;7.00;;;4.57;;
18789;SDS011;9523;42.650;23.386;2023-05-13T06:51:27;7.73;;;4.03;;
18789;SDS011;9523;42.650;23.386;2023-05-13T06:53:54;17.37;;;4.67;;
18789;SDS011;9523;42.650;23.386;2023-05-13T06:56:21;7.33;;;4.23;;
18789;SDS011;9523;42.650;23.386;2023-05-13T06:58:48;9.23;;;7.73;;
18789;SDS011;9523;42.650;23.386;2023-05-13T07:01:15;8.27;;;4.40;;
18789;SDS011;9523;42.650;23.386;2023-05-13T07:03:44;6.93;;;4.10;;
18789;SDS011;9523;42.650;23.386;2023-05-13T07:06:11;8.57;;;4.00;;
18789;SDS011;9523;42.650;23.386;2023-05-13T07:08:38;8.33;;;4.63;;
18789;SDS011;9523;42.650;23.386;2023-05-13T07:11:05;8.60;;;4.60;;
18789;SDS011;9523;42.650;23.386;2023-05-13T07:13:31;5.77;;;3.87;;
18789;SDS011;9523;42.650;23.386;2023-05-13T07:15:59;5.60;;;4.20;;
18789;SDS011;9523;42.650;23.386;2023-05-13T07:18:26;6.67;;;3.80;;
18789;SDS011;9523;42.650;23.386;2023-05-13T07:20:55;8.37;;;3.97;;
18789;SDS011;9523;42.650;23.386;2023-05-13T07:23:21;5.60;;;3.70;;
18789;SDS011;9523;42.650;23.386;2023-05-13T07:25:48;8.77;;;4.10;;
18789;SDS011;9523;42.650;23.386;2023-05-13T07:28:16;9.17;;;4.23;;
18789;SDS011;9523;42.650;23.386;2023-05-13T07:30:43;7.17;;;4.13;;
18789;SDS011;9523;42.650;23.386;2023-05-13T07:33:10;5.83;;;3.80;;
18789;SDS011;9523;42.650;23.386;2023-05-13T07:35:37;4.43;;;3.67;;
18789;SDS011;9523;42.650;23.386;2023-05-13T07:38:06;5.77;;;4.13;;
18789;SDS011;9523;42.650;23.386;2023-05-13T07:40:35;9.77;;;4.60;;
18789;SDS011;9523;42.650;23.386;2023-05-13T07:43:02;7.03;;;4.80;;
18789;SDS011;9523;42.650;23.386;2023-05-13T07:45:28;7.30;;;3.80;;
18789;SDS011;9523;42.650;23.386;2023-05-13T07:47:56;7.87;;;5.20;;
18789;SDS011;9523;42.650;23.386;2023-05-13T07:50:23;7.93;;;5.53;;
18789;SDS011;9523;42.650;23.386;2023-05-13T07:52:50;7.00;;;4.40;;
18789;SDS011;9523;42.650;23.386;2023-05-13T07:55:18;7.07;;;4.23;;
18789;SDS011;9523;42.650;23.386;2023-05-13T07:57:48;5.23;;;3.80;;
18789;SDS011;9523;42.650;23.386;2023-05-13T08:00:15;4.80;;;3.50;;
18789;SDS011;9523;42.650;23.386;2023-05-13T08:02:42;5.20;;;4.00;;
18789;SDS011;9523;42.650;23.386;2023-05-13T08:05:09;7.73;;;4.27;;
18789;SDS011;9523;42.650;23.386;2023-05-13T08:07:37;9.00;;;4.73;;
18789;SDS011;9523;42.650;23.386;2023-05-13T08:10:04;9.30;;;5.37;;
18789;SDS011;9523;42.650;23.386;2023-05-13T08:12:33;6.47;;;4.40;;
18789;SDS011;9523;42.650;23.386;2023-05-13T08:15:00;6.77;;;4.30;;
18789;SDS011;9523;42.650;23.386;2023-05-13T08:17:28;7.80;;;5.60;;
18789;SDS011;9523;42.650;23.386;2023-05-13T08:19:55;5.87;;;4.60;;
18789;SDS011;9523;42.650;23.386;2023-05-13T08:22:21;8.93;;;4.77;;
18789;SDS011;9523;42.650;23.386;2023-05-13T08:24:48;10.57;;;5.57;;
18789;SDS011;9523;42.650;23.386;2023-05-13T08:27:15;6.80;;;5.27;;
18789;SDS011;9523;42.650;23.386;2023-05-13T08:29:43;12.27;;;6.30;;
18789;SDS011;9523;42.650;23.386;2023-05-13T08:32:10;6.20;;;4.43;;
18789;SDS011;9523;42.650;23.386;2023-05-13T08:34:37;6.90;;;4.53;;
18789;SDS011;9523;42.650;23.386;2023-05-13T08:37:04;6.17;;;4.57;;
18789;SDS011;9523;42.650;23.386;2023-05-13T08:39:31;6.90;;;4.33;;
18789;SDS011;9523;42.650;23.386;2023-05-13T08:42:01;9.43;;;5.10;;
18789;SDS011;9523;42.650;23.386;2023-05-13T08:44:29;6.27;;;4.50;;
18789;SDS011;9523;42.650;23.386;2023-05-13T08:47:01;7.83;;;4.50;;
18789;SDS011;9523;42.650;23.386;2023-05-13T08:49:34;7.63;;;4.57;;
18789;SDS011;9523;42.650;23.386;2023-05-13T08:52:01;8.93;;;4.50;;
18789;SDS011;9523;42.650;23.386;2023-05-13T08:54:28;9.37;;;7.17;;
18789;SDS011;9523;42.650;23.386;2023-05-13T08:56:55;5.70;;;4.47;;
18789;SDS011;9523;42.650;23.386;2023-05-13T08:59:22;10.27;;;4.93;;
18789;SDS011;9523;42.650;23.386;2023-05-13T09:01:49;7.53;;;4.90;;
18789;SDS011;9523;42.650;23.386;2023-05-13T09:04:19;10.70;;;5.17;;
18789;SDS011;9523;42.650;23.386;2023-05-13T09:06:46;8.20;;;4.63;;
18789;SDS011;9523;42.650;23.386;2023-05-13T09:09:13;9.17;;;5.13;;
18789;SDS011;9523;42.650;23.386;2023-05-13T09:11:40;7.37;;;5.17;;
18789;SDS011;9523;42.650;23.386;2023-05-13T09:14:07;6.10;;;4.60;;
18789;SDS011;9523;42.650;23.386;2023-05-13T09:16:36;9.73;;;4.70;;
18789;SDS011;9523;42.650;23.386;2023-05-13T09:19:03;6.20;;;4.80;;
18789;SDS011;9523;42.650;23.386;2023-05-13T09:21:33;7.70;;;5.13;;
18789;SDS011;9523;42.650;23.386;2023-05-13T09:24:10;9.27;;;5.35;;
18789;SDS011;9523;42.650;23.386;2023-05-13T09:26:42;9.55;;;5.32;;
18789;SDS011;9523;42.650;23.386;2023-05-13T09:29:14;12.57;;;5.47;;
18789;SDS011;9523;42.650;23.386;2023-05-13T09:31:42;17.52;;;10.55;;
18789;SDS011;9523;42.650;23.386;2023-05-13T09:34:09;11.55;;;7.22;;
18789;SDS011;9523;42.650;23.386;2023-05-13T09:36:38;10.80;;;6.25;;
18789;SDS011;9523;42.650;23.386;2023-05-13T09:39:05;6.95;;;5.05;;
18789;SDS011;9523;42.650;23.386;2023-05-13T09:41:32;11.32;;;5.68;;
18789;SDS011;9523;42.650;23.386;2023-05-13T09:44:01;8.55;;;5.15;;
18789;SDS011;9523;42.650;23.386;2023-05-13T09:46:29;8.25;;;6.82;;
18789;SDS011;9523;42.650;23.386;2023-05-13T09:48:57;8.18;;;4.95;;
18789;SDS011;9523;42.650;23.386;2023-05-13T09:51:24;10.30;;;7.57;;
18789;SDS011;9523;42.650;23.386;2023-05-13T09:53:53;7.43;;;4.93;;
18789;SDS011;9523;42.650;23.386;2023-05-13T09:56:21;8.82;;;5.13;;
18789;SDS011;9523;42.650;23.386;2023-05-13T09:58:52;7.45;;;5.15;;
18789;SDS011;9523;42.650;23.386;2023-05-13T10:01:19;8.45;;;5.68;;
18789;SDS011;9523;42.650;23.386;2023-05-13T10:03:46;7.05;;;4.93;;
18789;SDS011;9523;42.650;23.386;2023-05-13T10:06:14;5.63;;;4.90;;
18789;SDS011;9523;42.650;23.386;2023-05-13T10:08:42;6.60;;;5.10;;
18789;SDS011;9523;42.650;23.386;2023-05-13T10:11:12;11.18;;;5.97;;
18789;SDS011;9523;42.650;23.386;2023-05-13T10:13:40;7.47;;;5.50;;
18789;SDS011;9523;42.650;23.386;2023-05-13T10:16:08;8.90;;;5.72;;
18789;SDS011;9523;42.650;23.386;2023-05-13T10:18:36;99.78;;;59.55;;
18789;SDS011;9523;42.650;23.386;2023-05-13T10:21:04;10.30;;;7.57;;
18789;SDS011;9523;42.650;23.386;2023-05-13T10:23:39;9.38;;;6.65;;
18789;SDS011;9523;42.650;23.386;2023-05-13T10:26:10;9.32;;;5.70;;
18789;SDS011;9523;42.650;23.386;2023-05-13T10:28:39;6.10;;;5.22;;
18789;SDS011;9523;42.650;23.386;2023-05-13T10:31:11;7.75;;;4.93;;
18789;SDS011;9523;42.650;23.386;2023-05-13T10:33:38;8.90;;;5.53;;
18789;SDS011;9523;42.650;23.386;2023-05-13T10:36:09;24.23;;;16.73;;
18789;SDS011;9523;42.650;23.386;2023-05-13T10:38:49;8.30;;;6.65;;
18789;SDS011;9523;42.650;23.386;2023-05-13T10:41:38;11.25;;;8.85;;
18789;SDS011;9523;42.650;23.386;2023-05-13T10:44:29;7.25;;;5.82;;
18789;SDS011;9523;42.650;23.386;2023-05-13T10:46:58;6.97;;;4.47;;
18789;SDS011;9523;42.650;23.386;2023-05-13T10:49:31;10.07;;;6.55;;
18789;SDS011;9523;42.650;23.386;2023-05-13T10:52:02;8.13;;;7.13;;
18789;SDS011;9523;42.650;23.386;2023-05-13T10:54:34;7.75;;;5.80;;
18789;SDS011;9523;42.650;23.386;2023-05-13T10:57:04;8.15;;;5.18;;
18789;SDS011;9523;42.650;23.386;2023-05-13T10:59:31;9.07;;;5.20;;
18789;SDS011;9523;42.650;23.386;2023-05-13T11:02:00;7.15;;;4.97;;
18789;SDS011;9523;42.650;23.386;2023-05-13T11:04:27;7.30;;;4.85;;
18789;SDS011;9523;42.650;23.386;2023-05-13T11:06:54;10.75;;;8.27;;
18789;SDS011;9523;42.650;23.386;2023-05-13T11:09:28;8.05;;;5.10;;
18789;SDS011;9523;42.650;23.386;2023-05-13T11:11:56;7.15;;;4.80;;
18789;SDS011;9523;42.650;23.386;2023-05-13T11:14:26;10.43;;;6.93;;
18789;SDS011;9523;42.650;23.386;2023-05-13T11:17:06;8.98;;;6.30;;
18789;SDS011;9523;42.650;23.386;2023-05-13T11:19:35;40.88;;;26.95;;
18789;SDS011;9523;42.650;23.386;2023-05-13T11:22:11;7.72;;;6.00;;
18789;SDS011;9523;42.650;23.386;2023-05-13T11:24:40;12.68;;;8.90;;
18789;SDS011;9523;42.650;23.386;2023-05-13T11:27:14;14.75;;;7.70;;
18789;SDS011;9523;42.650;23.386;2023-05-13T11:29:48;10.38;;;7.35;;
18789;SDS011;9523;42.650;23.386;2023-05-13T11:32:46;9.57;;;4.70;;
18789;SDS011;9523;42.650;23.386;2023-05-13T11:35:18;10.35;;;5.43;;
18789;SDS011;9523;42.650;23.386;2023-05-13T11:37:45;10.20;;;6.32;;
18789;SDS011;9523;42.650;23.386;2023-05-13T11:40:19;7.90;;;5.30;;
18789;SDS011;9523;42.650;23.386;2023-05-13T11:42:47;6.85;;;4.28;;
18789;SDS011;9523;42.650;23.386;2023-05-13T11:45:15;6.63;;;4.07;;
18789;SDS011;9523;42.650;23.386;2023-05-13T11:47:42;11.00;;;7.07;;
18789;SDS011;9523;42.650;23.386;2023-05-13T11:50:19;5.97;;;4.97;;
18789;SDS011;9523;42.650;23.386;2023-05-13T11:52:49;5.03;;;3.70;;
18789;SDS011;9523;42.650;23.386;2023-05-13T11:55:23;4.82;;;3.83;;
18789;SDS011;9523;42.650;23.386;2023-05-13T11:57:51;9.20;;;6.30;;
18789;SDS011;9523;42.650;23.386;2023-05-13T12:00:24;7.43;;;3.83;;
18789;SDS011;9523;42.650;23.386;2023-05-13T12:02:52;5.45;;;4.45;;
18789;SDS011;9523;42.650;23.386;2023-05-13T12:05:19;7.97;;;4.15;;
18789;SDS011;9523;42.650;23.386;2023-05-13T12:07:46;4.22;;;3.78;;
18789;SDS011;9523;42.650;23.386;2023-05-13T12:10:13;7.85;;;4.50;;
18789;SDS011;9523;42.650;23.386;2023-05-13T12:12:40;4.00;;;3.60;;
18789;SDS011;9523;42.650;23.386;2023-05-13T12:15:10;6.05;;;3.92;;
18789;SDS011;9523;42.650;23.386;2023-05-13T12:17:42;6.75;;;4.00;;
18789;SDS011;9523;42.650;23.386;2023-05-13T12:20:10;5.75;;;3.60;;
18789;SDS011;9523;42.650;23.386;2023-05-13T12:22:51;7.20;;;3.65;;
18789;SDS011;9523;42.650;23.386;2023-05-13T12:25:40;6.32;;;3.90;;
18789;SDS011;9523;42.650;23.386;2023-05-13T12:28:09;5.07;;;3.70;;
18789;SDS011;9523;42.650;23.386;2023-05-13T12:30:40;6.15;;;4.55;;
18789;SDS011;9523;42.650;23.386;2023-05-13T12:33:13;10.40;;;5.45;;
18789;SDS011;9523;42.650;23.386;2023-05-13T12:35:41;5.85;;;3.70;;
18789;SDS011;9523;42.650;23.386;2023-05-13T12:38:12;6.38;;;4.03;;
18789;SDS011;9523;42.650;23.386;2023-05-13T12:40:42;6.15;;;4.00;;
18789;SDS011;9523;42.650;23.386;2023-05-13T12:43:09;6.90;;;4.25;;
18789;SDS011;9523;42.650;23.386;2023-05-13T12:45:38;8.75;;;4.55;;
18789;SDS011;9523;42.650;23.386;2023-05-13T12:48:06;6.63;;;4.50;;
18789;SDS011;9523;42.650;23.386;2023-05-13T12:50:35;5.47;;;4.60;;
18789;SDS011;9523;42.650;23.386;2023-05-13T12:53:02;8.40;;;5.07;;
18789;SDS011;9523;42.650;23.386;2023-05-13T12:55:29;5.82;;;4.85;;
18789;SDS011;9523;42.650;23.386;2023-05-13T12:57:58;5.38;;;4.13;;
18789;SDS011;9523;42.650;23.386;2023-05-13T13:00:27;5.40;;;3.83;;
18789;SDS011;9523;42.650;23.386;2023-05-13T13:02:54;5.72;;;4.28;;
18789;SDS011;9523;42.650;23.386;2023-05-13T13:05:22;5.22;;;3.80;;
18789;SDS011;9523;42.650;23.386;2023-05-13T13:07:51;7.78;;;3.75;;
18789;SDS011;9523;42.650;23.386;2023-05-13T13:10:18;5.65;;;4.43;;
18789;SDS011;9523;42.650;23.386;2023-05-13T13:12:44;25.33;;;12.15;;
18789;SDS011;9523;42.650;23.386;2023-05-13T13:15:11;188.63;;;97.47;;
18789;SDS011;9523;42.650;23.386;2023-05-13T13:17:38;154.82;;;74.95;;
18789;SDS011;9523;42.650;23.386;2023-05-13T13:20:05;232.65;;;125.13;;
18789;SDS011;9523;42.650;23.386;2023-05-13T13:22:33;266.77;;;130.90;;
18789;SDS011;9523;42.650;23.386;2023-05-13T13:25:03;79.50;;;43.28;;
18789;SDS011;9523;42.650;23.386;2023-05-13T13:27:31;20.83;;;11.52;;
18789;SDS011;9523;42.650;23.386;2023-05-13T13:29:58;10.63;;;7.75;;
18789;SDS011;9523;42.650;23.386;2023-05-13T13:32:24;7.53;;;4.43;;
18789;SDS011;9523;42.650;23.386;2023-05-13T13:34:51;8.23;;;4.35;;
18789;SDS011;9523;42.650;23.386;2023-05-13T13:37:18;5.78;;;4.10;;
18789;SDS011;9523;42.650;23.386;2023-05-13T13:39:45;4.90;;;4.40;;
18789;SDS011;9523;42.650;23.386;2023-05-13T13:42:18;5.63;;;4.18;;
18789;SDS011;9523;42.650;23.386;2023-05-13T13:44:46;4.78;;;3.22;;
18789;SDS011;9523;42.650;23.386;2023-05-13T13:47:16;4.15;;;3.20;;
18789;SDS011;9523;42.650;23.386;2023-05-13T13:49:43;4.15;;;3.40;;
18789;SDS011;9523;42.650;23.386;2023-05-13T13:52:13;6.38;;;3.67;;
18789;SDS011;9523;42.650;23.386;2023-05-13T13:54:40;5.50;;;4.03;;
18789;SDS011;9523;42.650;23.386;2023-05-13T13:57:07;6.07;;;4.18;;
18789;SDS011;9523;42.650;23.386;2023-05-13T13:59:35;4.05;;;3.28;;
18789;SDS011;9523;42.650;23.386;2023-05-13T14:02:02;5.72;;;3.65;;
18789;SDS011;9523;42.650;23.386;2023-05-13T14:04:29;4.22;;;3.20;;
18789;SDS011;9523;42.650;23.386;2023-05-13T14:06:59;5.20;;;3.53;;
18789;SDS011;9523;42.650;23.386;2023-05-13T14:09:27;11.70;;;5.93;;
18789;SDS011;9523;42.650;23.386;2023-05-13T14:11:55;8.18;;;3.90;;
18789;SDS011;9523;42.650;23.386;2023-05-13T14:14:22;4.45;;;3.70;;
18789;SDS011;9523;42.650;23.386;2023-05-13T14:16:51;4.13;;;3.45;;
18789;SDS011;9523;42.650;23.386;2023-05-13T14:19:18;4.25;;;3.67;;
18789;SDS011;9523;42.650;23.386;2023-05-13T14:21:44;7.32;;;3.88;;
18789;SDS011;9523;42.650;23.386;2023-05-13T14:24:14;6.80;;;4.07;;
18789;SDS011;9523;42.650;23.386;2023-05-13T14:26:41;4.88;;;3.40;;
18789;SDS011;9523;42.650;23.386;2023-05-13T14:29:08;5.32;;;3.60;;
18789;SDS011;9523;42.650;23.386;2023-05-13T14:31:35;7.13;;;3.30;;
18789;SDS011;9523;42.650;23.386;2023-05-13T14:34:03;5.38;;;3.33;;
18789;SDS011;9523;42.650;23.386;2023-05-13T14:36:30;4.10;;;3.33;;
18789;SDS011;9523;42.650;23.386;2023-05-13T14:38:57;8.13;;;3.28;;
18789;SDS011;9523;42.650;23.386;2023-05-13T14:41:24;9.57;;;3.42;;
18789;SDS011;9523;42.650;23.386;2023-05-13T14:43:53;6.75;;;3.45;;
18789;SDS011;9523;42.650;23.386;2023-05-13T14:46:20;4.50;;;3.50;;
18789;SDS011;9523;42.650;23.386;2023-05-13T14:48:47;5.25;;;2.97;;
18789;SDS011;9523;42.650;23.386;2023-05-13T14:51:15;3.58;;;2.92;;
18789;SDS011;9523;42.650;23.386;2023-05-13T14:53:42;5.10;;;2.90;;